createdAt,value
2022-08-02T00:01:15.826Z,23.13
2022-08-02T00:04:01.199Z,23.12
2022-08-02T00:06:46.621Z,23.11
2022-08-02T00:09:31.880Z,23.10
2022-08-02T00:12:17.405Z,23.09
2022-08-02T00:15:03.850Z,23.09
2022-08-02T00:17:49.613Z,23.08
2022-08-02T00:20:35.235Z,23.07
2022-08-02T00:23:20.511Z,23.08
2022-08-02T00:26:05.875Z,23.06
2022-08-02T00:28:51.259Z,23.08
2022-08-02T00:31:36.691Z,23.06
2022-08-02T00:34:28.906Z,23.04
2022-08-02T00:37:16.528Z,23.05
2022-08-02T00:40:03.305Z,23.04
2022-08-02T00:43:00.085Z,23.02
2022-08-02T00:45:58.666Z,23.02
2022-08-02T00:48:48.654Z,23.00
2022-08-02T00:51:35.374Z,23.00
2022-08-02T00:54:20.576Z,23.01
2022-08-02T00:57:06.181Z,23.00
2022-08-02T00:59:51.877Z,23.01
2022-08-02T01:02:37.107Z,23.00
2022-08-02T01:05:22.401Z,22.98
2022-08-02T01:08:07.682Z,22.98
2022-08-02T01:10:53.227Z,22.97
2022-08-02T01:13:39.360Z,22.97
2022-08-02T01:16:28.522Z,22.96
2022-08-02T01:19:46.825Z,22.94
2022-08-02T01:22:59.418Z,22.94
2022-08-02T01:25:50.179Z,22.94
2022-08-02T01:29:01.377Z,22.92
2022-08-02T01:31:50.749Z,22.91
2022-08-02T01:34:42.456Z,22.91
2022-08-02T01:37:53.144Z,22.89
2022-08-02T01:40:42.236Z,22.89
2022-08-02T01:43:30.067Z,22.91
2022-08-02T01:46:17.951Z,22.90
2022-08-02T01:49:08.526Z,22.88
2022-08-02T01:52:17.239Z,22.87
2022-08-02T01:55:16.316Z,22.86
2022-08-02T01:58:07.190Z,22.86
2022-08-02T02:00:56.553Z,22.86
2022-08-02T02:03:42.580Z,22.87
2022-08-02T02:06:28.786Z,22.85
2022-08-02T02:09:16.262Z,22.86
2022-08-02T02:12:14.814Z,22.87
2022-08-02T02:15:02.189Z,22.84
2022-08-02T02:18:12.860Z,22.82
2022-08-02T02:20:57.506Z,22.83
2022-08-02T02:23:43.685Z,22.83
2022-08-02T02:26:31.907Z,22.82
2022-08-02T02:29:20.322Z,22.82
2022-08-02T02:32:06.519Z,22.82
2022-08-02T02:34:53.282Z,22.82
2022-08-02T02:37:38.980Z,22.82
2022-08-02T02:40:27.439Z,22.81
2022-08-02T02:43:14.525Z,22.81
2022-08-02T02:46:02.239Z,22.79
2022-08-02T02:48:51.567Z,22.78
2022-08-02T02:51:39.896Z,22.80
2022-08-02T02:54:32.943Z,22.78
2022-08-02T02:57:22.263Z,22.77
2022-08-02T03:00:11.714Z,22.75
2022-08-02T03:02:56.940Z,22.76
2022-08-02T03:05:42.214Z,22.76
2022-08-02T03:08:27.418Z,22.75
2022-08-02T03:11:13.539Z,22.77
2022-08-02T03:14:00.984Z,22.75
2022-08-02T03:16:49.209Z,22.75
2022-08-02T03:19:34.356Z,22.73
2022-08-02T03:22:19.526Z,22.73
2022-08-02T03:25:05.339Z,22.72
2022-08-02T03:27:50.684Z,22.73
2022-08-02T03:30:36.036Z,22.73
2022-08-02T03:33:23.094Z,22.72
2022-08-02T03:36:12.700Z,22.71
2022-08-02T03:38:59.772Z,22.71
2022-08-02T03:41:46.077Z,22.70
2022-08-02T03:44:32.016Z,22.71
2022-08-02T03:47:19.164Z,22.69
2022-08-02T03:50:05.313Z,22.68
2022-08-02T03:52:51.925Z,22.68
2022-08-02T03:55:37.590Z,22.66
2022-08-02T03:58:24.422Z,22.66
2022-08-02T04:01:10.034Z,22.67
2022-08-02T04:03:55.159Z,22.66
2022-08-02T04:06:41.744Z,22.66
2022-08-02T04:09:27.385Z,22.63
2022-08-02T04:12:12.978Z,22.65
2022-08-02T04:14:59.785Z,22.66
2022-08-02T04:17:58.294Z,22.62
2022-08-02T04:20:45.916Z,22.62
2022-08-02T04:23:33.275Z,22.65
2022-08-02T04:26:28.183Z,22.66
2022-08-02T04:29:15.761Z,22.68
2022-08-02T04:32:01.566Z,22.73
2022-08-02T04:35:11.670Z,22.72
2022-08-02T04:38:08.547Z,22.78
2022-08-02T04:40:57.076Z,22.79
2022-08-02T04:43:43.339Z,22.80
2022-08-02T04:46:29.104Z,22.82
2022-08-02T04:49:14.765Z,22.84
2022-08-02T04:52:01.077Z,22.86
2022-08-02T04:54:46.575Z,22.89
2022-08-02T04:57:52.677Z,22.89
2022-08-02T05:00:38.657Z,22.92
2022-08-02T05:03:23.817Z,22.92
2022-08-02T05:06:18.666Z,22.95
2022-08-02T05:09:04.739Z,22.97
2022-08-02T05:11:54.861Z,22.99
2022-08-02T05:14:40.650Z,23.01
2022-08-02T05:17:25.921Z,23.00
2022-08-02T05:20:15.404Z,23.02
2022-08-02T05:23:00.908Z,23.03
2022-08-02T05:25:46.252Z,23.07
2022-08-02T05:28:31.536Z,23.04
2022-08-02T05:31:17.474Z,23.06
2022-08-02T05:34:02.825Z,23.08
2022-08-02T05:36:48.122Z,23.12
2022-08-02T05:39:33.874Z,23.13
2022-08-02T05:42:20.640Z,23.12
2022-08-02T05:45:06.589Z,23.14
2022-08-02T05:47:52.192Z,23.18
2022-08-02T05:50:39.759Z,23.16
2022-08-02T05:53:31.591Z,23.18
2022-08-02T05:56:24.176Z,23.20
2022-08-02T05:59:17.869Z,23.16
2022-08-02T06:02:10.448Z,23.16
2022-08-02T06:05:03.702Z,23.17
2022-08-02T06:07:49.933Z,23.18
2022-08-02T06:10:36.901Z,23.19
2022-08-02T06:13:23.614Z,23.21
2022-08-02T06:16:14.156Z,23.20
2022-08-02T06:19:01.540Z,23.21
2022-08-02T06:22:34.750Z,23.24
2022-08-02T06:24:56.098Z,23.24
2022-08-02T06:27:42.053Z,23.22
2022-08-02T06:30:29.297Z,23.21
2022-08-02T06:33:15.004Z,23.21
2022-08-02T06:36:08.432Z,23.23
2022-08-02T06:39:05.565Z,23.23
2022-08-02T06:41:55.510Z,23.21
2022-08-02T06:44:57.687Z,23.21
2022-08-02T06:47:44.082Z,23.22
2022-08-02T06:50:30.663Z,23.24
2022-08-02T06:53:15.973Z,23.26
2022-08-02T06:56:01.240Z,23.26
2022-08-02T06:58:46.667Z,23.29
2022-08-02T07:01:38.590Z,23.29
2022-08-02T07:04:24.660Z,23.29
2022-08-02T07:07:10.032Z,23.28
2022-08-02T07:10:00.761Z,23.29
2022-08-02T07:12:47.107Z,23.31
2022-08-02T07:15:32.593Z,23.32
2022-08-02T07:18:18.171Z,23.33
2022-08-02T07:21:06.123Z,23.31
2022-08-02T07:23:54.029Z,23.33
2022-08-02T07:27:01.594Z,23.38
2022-08-02T07:29:47.105Z,23.41
2022-08-02T07:32:33.604Z,23.42
2022-08-02T07:35:19.948Z,23.43
2022-08-02T07:38:05.243Z,23.42
2022-08-02T07:40:51.379Z,23.41
2022-08-02T07:43:37.192Z,23.43
2022-08-02T07:46:22.870Z,23.43
2022-08-02T07:49:08.901Z,23.44
2022-08-02T07:51:54.198Z,23.41
2022-08-02T07:54:39.555Z,23.43
2022-08-02T07:57:25.237Z,23.47
2022-08-02T08:00:11.070Z,23.48
2022-08-02T08:02:59.418Z,23.50
2022-08-02T08:05:44.752Z,23.49
2022-08-02T08:08:30.003Z,23.50
2022-08-02T08:11:15.662Z,23.51
2022-08-02T08:14:00.924Z,23.53
2022-08-02T08:16:46.006Z,23.53
2022-08-02T08:19:36.467Z,23.53
2022-08-02T08:22:36.857Z,23.56
2022-08-02T08:25:23.795Z,23.60
2022-08-02T08:28:12.422Z,23.60
2022-08-02T08:30:57.883Z,23.62
2022-08-02T08:33:43.348Z,23.62
2022-08-02T08:36:29.020Z,23.59
2022-08-02T08:39:14.222Z,23.59
2022-08-02T08:41:59.636Z,23.59
2022-08-02T08:44:46.069Z,23.58
2022-08-02T08:47:38.162Z,23.61
2022-08-02T08:50:26.078Z,23.61
2022-08-02T08:53:12.335Z,23.62
2022-08-02T08:56:00.412Z,23.63
2022-08-02T08:58:48.942Z,23.66
2022-08-02T09:01:49.981Z,23.72
2022-08-02T09:04:36.494Z,23.65
2022-08-02T09:07:25.439Z,23.68
2022-08-02T09:10:39.148Z,23.72
2022-08-02T09:13:38.560Z,23.72
2022-08-02T09:16:37.990Z,23.69
2022-08-02T09:19:27.169Z,23.66
2022-08-02T09:22:15.833Z,23.70
2022-08-02T09:25:01.939Z,23.73
2022-08-02T09:27:48.595Z,23.74
2022-08-02T09:30:43.915Z,23.71
2022-08-02T09:33:29.143Z,23.71
2022-08-02T09:36:16.665Z,23.71
2022-08-02T09:39:06.589Z,23.71
2022-08-02T09:41:53.300Z,23.73
2022-08-02T09:44:39.082Z,23.71
2022-08-02T09:47:25.899Z,23.75
2022-08-02T09:50:14.938Z,23.77
2022-08-02T09:53:02.993Z,23.80
2022-08-02T09:55:56.361Z,23.82
2022-08-02T09:58:42.025Z,23.81
2022-08-02T10:01:37.141Z,23.84
2022-08-02T10:04:26.323Z,23.86
2022-08-02T10:07:12.418Z,23.82
2022-08-02T10:09:58.209Z,23.78
2022-08-02T10:12:44.170Z,23.79
2022-08-02T10:15:29.749Z,23.82
2022-08-02T10:18:36.951Z,23.79
2022-08-02T10:21:32.322Z,23.82
2022-08-02T10:24:21.054Z,23.82
2022-08-02T10:27:16.705Z,23.83
2022-08-02T10:30:02.991Z,23.85
2022-08-02T10:32:50.427Z,23.88
2022-08-02T10:35:38.991Z,23.86
2022-08-02T10:38:26.012Z,23.91
2022-08-02T10:41:11.718Z,23.92
2022-08-02T10:44:00.301Z,23.88
2022-08-02T10:46:45.597Z,23.91
2022-08-02T10:49:40.103Z,23.92
2022-08-02T10:52:27.194Z,23.98
2022-08-02T10:55:14.905Z,24.00
2022-08-02T10:58:26.382Z,23.95
2022-08-02T11:01:39.610Z,23.94
2022-08-02T11:04:25.612Z,23.98
2022-08-02T11:07:14.306Z,24.03
2022-08-02T11:10:00.541Z,24.04
2022-08-02T11:13:04.014Z,24.05
2022-08-02T11:16:06.465Z,24.05
2022-08-02T11:18:57.630Z,24.06
2022-08-02T11:22:11.395Z,24.04
2022-08-02T11:24:57.311Z,24.04
2022-08-02T11:27:43.454Z,24.04
2022-08-02T11:30:28.766Z,24.05
2022-08-02T11:33:14.594Z,24.10
2022-08-02T11:36:03.424Z,24.14
2022-08-02T11:38:48.607Z,24.14
2022-08-02T11:41:47.515Z,24.18
2022-08-02T11:44:41.139Z,24.16
2022-08-02T11:47:26.547Z,24.17
2022-08-02T11:50:12.212Z,24.19
2022-08-02T11:52:57.784Z,24.20
2022-08-02T11:55:43.119Z,24.20
2022-08-02T11:58:28.573Z,24.17
2022-08-02T12:01:13.762Z,24.15
2022-08-02T12:04:02.374Z,24.16
2022-08-02T12:06:56.959Z,24.19
2022-08-02T12:09:42.306Z,24.19
2022-08-02T12:12:28.459Z,24.22
2022-08-02T12:15:15.571Z,24.25
2022-08-02T12:18:21.150Z,24.27
2022-08-02T12:21:25.221Z,24.22
2022-08-02T12:24:11.414Z,24.23
2022-08-02T12:26:57.040Z,24.23
2022-08-02T12:29:58.045Z,24.24
2022-08-02T12:32:46.117Z,24.24
2022-08-02T12:35:31.278Z,24.28
2022-08-02T12:38:17.409Z,24.29
2022-08-02T12:41:31.148Z,24.30
2022-08-02T12:44:19.915Z,24.30
2022-08-02T12:47:09.649Z,24.29
2022-08-02T12:50:17.583Z,24.31
2022-08-02T12:53:17.600Z,24.34
2022-08-02T12:56:03.826Z,24.35
2022-08-02T12:58:50.702Z,24.36
2022-08-02T13:01:36.479Z,24.37
2022-08-02T13:04:22.089Z,24.35
2022-08-02T13:07:07.383Z,24.36
2022-08-02T13:10:01.119Z,24.40
2022-08-02T13:12:48.498Z,24.39
2022-08-02T13:15:50.455Z,24.38
2022-08-02T13:18:36.800Z,24.38
2022-08-02T13:21:40.375Z,24.40
2022-08-02T13:24:41.208Z,24.37
2022-08-02T13:27:32.613Z,24.34
2022-08-02T13:30:18.393Z,24.39
2022-08-02T13:33:04.309Z,24.38
2022-08-02T13:35:50.846Z,24.36
2022-08-02T13:38:36.188Z,24.38
2022-08-02T13:41:21.573Z,24.43
2022-08-02T13:44:10.510Z,24.45
2022-08-02T13:46:56.647Z,24.42
2022-08-02T13:49:51.647Z,24.43
2022-08-02T13:52:38.806Z,24.39
2022-08-02T13:55:24.589Z,24.41
2022-08-02T13:58:09.844Z,24.43
2022-08-02T14:00:55.165Z,24.43
2022-08-02T14:04:07.669Z,24.42
2022-08-02T14:06:46.032Z,24.44
2022-08-02T14:09:33.502Z,24.46
2022-08-02T14:12:18.825Z,24.45
2022-08-02T14:15:04.497Z,24.45
2022-08-02T14:17:50.088Z,24.47
2022-08-02T14:20:38.677Z,24.51
2022-08-02T14:23:50.265Z,24.50
2022-08-02T14:26:29.698Z,24.50
2022-08-02T14:29:16.234Z,24.48
2022-08-02T14:32:02.206Z,24.46
2022-08-02T14:34:47.455Z,24.51
2022-08-02T14:37:34.422Z,24.47
2022-08-02T14:40:31.449Z,24.48
2022-08-02T14:43:36.120Z,24.56
2022-08-02T14:46:21.562Z,24.53
2022-08-02T14:49:08.923Z,24.52
2022-08-02T14:51:55.351Z,24.54
2022-08-02T14:54:43.072Z,24.58
2022-08-02T14:57:28.228Z,24.59
2022-08-02T15:00:14.267Z,24.61
2022-08-02T15:02:59.716Z,24.63
2022-08-02T15:05:44.888Z,24.62
2022-08-02T15:08:30.133Z,24.60
2022-08-02T15:11:15.536Z,24.63
2022-08-02T15:14:00.887Z,24.62
2022-08-02T15:16:56.110Z,24.61
2022-08-02T15:19:57.324Z,24.63
2022-08-02T15:22:45.734Z,24.71
2022-08-02T15:25:39.694Z,24.72
2022-08-02T15:28:29.313Z,24.71
2022-08-02T15:31:22.369Z,24.64
2022-08-02T15:34:18.977Z,24.64
2022-08-02T15:37:04.325Z,24.62
2022-08-02T15:39:49.480Z,24.63
2022-08-02T15:42:34.752Z,24.63
2022-08-02T15:45:19.960Z,24.64
2022-08-02T15:48:05.884Z,24.65
2022-08-02T15:50:51.200Z,24.67
2022-08-02T15:53:36.478Z,24.69
2022-08-02T15:56:23.918Z,24.71
2022-08-02T15:59:10.069Z,24.67
2022-08-02T16:01:55.649Z,24.70
2022-08-02T16:04:40.883Z,24.67
2022-08-02T16:07:26.193Z,24.64
2022-08-02T16:10:11.683Z,24.71
2022-08-02T16:13:17.155Z,24.70
2022-08-02T16:16:02.985Z,24.71
2022-08-02T16:18:48.500Z,24.67
2022-08-02T16:21:36.569Z,24.70
2022-08-02T16:24:22.966Z,24.67
2022-08-02T16:27:15.645Z,24.69
2022-08-02T16:30:02.352Z,24.70
2022-08-02T16:32:48.714Z,24.68
2022-08-02T16:35:36.316Z,24.67
2022-08-02T16:38:22.576Z,24.63
2022-08-02T16:41:07.906Z,24.63
2022-08-02T16:43:54.123Z,24.62
2022-08-02T16:46:41.421Z,24.63
2022-08-02T16:50:05.987Z,24.61
2022-08-02T16:52:37.823Z,24.61
2022-08-02T16:55:24.646Z,24.59
2022-08-02T16:58:09.999Z,24.58
2022-08-02T17:00:55.248Z,24.60
2022-08-02T17:03:56.009Z,24.58
2022-08-02T17:06:47.900Z,24.60
2022-08-02T17:10:04.608Z,24.60
2022-08-02T17:12:43.410Z,24.58
2022-08-02T17:16:08.619Z,24.59
2022-08-02T17:18:42.680Z,24.59
2022-08-02T17:21:29.038Z,24.59
2022-08-02T17:24:14.418Z,24.59
2022-08-02T17:27:00.418Z,24.59
2022-08-02T17:29:46.427Z,24.58
2022-08-02T17:32:32.212Z,24.60
2022-08-02T17:35:18.172Z,24.59
2022-08-02T17:38:05.300Z,24.59
2022-08-02T17:40:50.924Z,24.59
2022-08-02T17:43:41.040Z,24.59
2022-08-02T17:46:27.808Z,24.59
2022-08-02T17:49:24.519Z,24.58
2022-08-02T17:52:48.102Z,24.55
2022-08-02T17:55:16.417Z,24.56
2022-08-02T17:58:03.002Z,24.54
2022-08-02T18:00:48.408Z,24.56
2022-08-02T18:03:36.171Z,24.56
2022-08-02T18:06:28.293Z,24.57
2022-08-02T18:09:13.738Z,24.59
2022-08-02T18:11:59.531Z,24.59
2022-08-02T18:14:48.756Z,24.62
2022-08-02T18:17:34.675Z,24.63
2022-08-02T18:20:20.982Z,24.63
2022-08-02T18:23:10.990Z,24.64
2022-08-02T18:25:59.210Z,24.65
2022-08-02T18:28:45.050Z,24.62
2022-08-02T18:31:39.518Z,24.63
2022-08-02T18:34:25.571Z,24.66
2022-08-02T18:37:10.822Z,24.65
2022-08-02T18:39:56.318Z,24.64
2022-08-02T18:42:41.856Z,24.70
2022-08-02T18:46:05.748Z,24.68
2022-08-02T18:48:37.915Z,24.62
2022-08-02T18:51:24.525Z,24.62
2022-08-02T18:54:10.462Z,24.58
2022-08-02T18:56:56.526Z,24.56
2022-08-02T18:59:42.761Z,24.58
2022-08-02T19:02:37.067Z,24.54
2022-08-02T19:05:52.028Z,24.54
2022-08-02T19:08:31.175Z,24.54
2022-08-02T19:11:18.199Z,24.52
2022-08-02T19:14:08.517Z,24.53
2022-08-02T19:16:55.051Z,24.52
2022-08-02T19:19:41.010Z,24.53
2022-08-02T19:22:27.282Z,24.51
2022-08-02T19:25:14.338Z,24.49
2022-08-02T19:28:03.774Z,24.46
2022-08-02T19:30:49.553Z,24.46
2022-08-02T19:34:04.507Z,24.47
2022-08-02T19:36:42.811Z,24.52
2022-08-02T19:39:28.818Z,24.54
2022-08-02T19:42:16.340Z,24.54
2022-08-02T19:45:02.445Z,24.56
2022-08-02T19:47:54.236Z,24.54
2022-08-02T19:50:40.965Z,24.55
2022-08-02T19:53:46.924Z,24.55
2022-08-02T19:56:34.375Z,24.57
2022-08-02T19:59:20.524Z,24.54
2022-08-02T20:02:06.696Z,24.51
2022-08-02T20:04:52.987Z,24.51
2022-08-02T20:07:56.213Z,24.51
2022-08-02T20:10:42.329Z,24.50
2022-08-02T20:13:34.702Z,24.52
2022-08-02T20:16:34.390Z,24.53
2022-08-02T20:19:20.006Z,24.54
2022-08-02T20:22:07.950Z,24.54
2022-08-02T20:24:53.203Z,24.55
2022-08-02T20:27:38.317Z,24.52
2022-08-02T20:30:38.022Z,24.54
2022-08-02T20:33:23.452Z,24.54
2022-08-02T20:36:09.096Z,24.58
2022-08-02T20:38:55.398Z,24.60
2022-08-02T20:41:45.748Z,24.59
2022-08-02T20:44:34.482Z,24.60
2022-08-02T20:47:19.805Z,24.62
2022-08-02T20:50:33.234Z,24.62
2022-08-02T20:53:24.114Z,24.65
2022-08-02T20:56:12.728Z,24.67
2022-08-02T20:59:04.029Z,24.65
2022-08-02T21:01:57.681Z,24.67
2022-08-02T21:04:42.870Z,24.65
2022-08-02T21:07:29.118Z,24.66
2022-08-02T21:10:17.840Z,24.65
2022-08-02T21:13:18.441Z,24.64
2022-08-02T21:16:08.449Z,24.67
2022-08-02T21:18:59.999Z,24.65
2022-08-02T21:21:45.961Z,24.64
2022-08-02T21:24:31.341Z,24.65
2022-08-02T21:27:52.650Z,24.64
2022-08-02T21:30:24.222Z,24.65
2022-08-02T21:33:17.802Z,24.56
2022-08-02T21:36:08.918Z,24.52
2022-08-02T21:38:57.411Z,24.47
2022-08-02T21:41:46.158Z,24.45
2022-08-02T21:44:50.680Z,24.43
2022-08-02T21:47:36.070Z,24.40
2022-08-02T21:50:22.427Z,24.39
2022-08-02T21:53:07.614Z,24.37
2022-08-02T21:56:00.966Z,24.32
2022-08-02T21:58:47.790Z,24.30
2022-08-02T22:01:35.077Z,24.28
2022-08-02T22:04:21.667Z,24.24
2022-08-02T22:07:07.244Z,24.24
2022-08-02T22:09:53.373Z,24.21
2022-08-02T22:12:38.879Z,24.18
2022-08-02T22:15:25.893Z,24.17
2022-08-02T22:18:27.059Z,24.14
2022-08-02T22:21:16.820Z,24.12
2022-08-02T22:24:02.905Z,24.10
2022-08-02T22:26:48.490Z,24.07
2022-08-02T22:29:33.529Z,24.04
2022-08-02T22:32:40.283Z,24.04
2022-08-02T22:35:25.797Z,24.01
2022-08-02T22:38:16.390Z,24.02
2022-08-02T22:41:03.803Z,23.98
2022-08-02T22:43:49.585Z,23.97
2022-08-02T22:46:35.060Z,23.97
2022-08-02T22:49:39.069Z,23.97
2022-08-02T22:52:27.850Z,23.97
2022-08-02T22:55:13.107Z,23.97
2022-08-02T22:57:58.904Z,23.95
2022-08-02T23:00:43.962Z,23.95
2022-08-02T23:03:29.718Z,23.96
2022-08-02T23:06:17.512Z,23.94
2022-08-02T23:09:03.106Z,23.92
2022-08-02T23:11:48.493Z,23.93
2022-08-02T23:14:33.755Z,23.91
2022-08-02T23:17:38.540Z,23.89
2022-08-02T23:20:24.276Z,23.87
2022-08-02T23:23:11.597Z,23.85
2022-08-02T23:25:57.507Z,23.86
2022-08-02T23:28:42.881Z,23.85
2022-08-02T23:31:31.364Z,23.85
2022-08-02T23:34:16.621Z,23.82
2022-08-02T23:37:04.013Z,23.80
2022-08-02T23:39:49.818Z,23.81
2022-08-02T23:42:35.387Z,23.78
2022-08-02T23:45:20.491Z,23.77
2022-08-02T23:48:05.732Z,23.77
2022-08-02T23:50:51.048Z,23.77
2022-08-02T23:53:36.321Z,23.76
2022-08-02T23:56:23.752Z,23.75
2022-08-02T23:59:09.216Z,23.75
